Winchcomb, United Kingdom
Current Conditions -  °F | °C
As of 7:20 PM on Thursday 18 Dec 2014 (Local Time) from EGBJ Reporting Station
Broken Clouds Broken Clouds  
Wind Chill: 54°   Ceiling: 1700
Heat Index: 54°   Visibility: 6mi
Dew Point: 52°   Wind: 16mph
Humidity: 94%   Direction: 220°SW
Pressure: 29.8"   Gusts: NA
Location:  51.95°N, 1.97°W
Report Text: EGBJ 181920Z 22014KT 9999 FEW011 BKN017 12/11 Q1009
Loading
Personal Weather Stations






























Interactive Weather Map New forecast layout! Learn more

10-Day Weather Forecast

Advertisements
Track Severe Weather on mobile